createdAt,value
2023-05-08T00:02:17.533Z,9.35
2023-05-08T00:04:45.983Z,7.70
2023-05-08T00:07:13.789Z,7.63
2023-05-08T00:09:42.923Z,8.10
2023-05-08T00:12:11.316Z,7.38
2023-05-08T00:14:39.138Z,8.35
2023-05-08T00:17:06.965Z,8.77
2023-05-08T00:19:35.359Z,7.78
2023-05-08T00:22:03.116Z,7.97
2023-05-08T00:24:30.909Z,8.60
2023-05-08T00:27:00.105Z,9.20
2023-05-08T00:29:27.854Z,8.00
2023-05-08T00:31:55.729Z,7.88
2023-05-08T00:34:24.124Z,6.97
2023-05-08T00:36:51.898Z,8.27
2023-05-08T00:39:19.921Z,6.78
2023-05-08T00:41:48.201Z,7.55
2023-05-08T00:44:17.623Z,8.02
2023-05-08T00:46:46.621Z,8.10
2023-05-08T00:49:16.210Z,8.15
2023-05-08T00:51:46.220Z,6.80
2023-05-08T00:54:14.723Z,7.40
2023-05-08T00:56:42.981Z,7.65
2023-05-08T00:59:14.551Z,6.80
2023-05-08T01:01:45.418Z,8.27
2023-05-08T01:04:13.237Z,10.35
2023-05-08T01:06:41.112Z,12.50
2023-05-08T01:12:08.579Z,16.55
2023-05-08T01:14:46.442Z,18.92
2023-05-08T01:17:24.230Z,16.60
2023-05-08T01:20:06.336Z,17.55
2023-05-08T01:23:06.505Z,20.42
2023-05-08T01:26:12.157Z,16.83
2023-05-08T01:29:14.367Z,20.35
2023-05-08T01:31:56.020Z,19.30
2023-05-08T01:34:32.352Z,19.52
2023-05-08T01:37:04.487Z,20.02
2023-05-08T01:39:40.160Z,18.13
2023-05-08T01:42:15.659Z,20.92
2023-05-08T01:44:48.899Z,18.27
2023-05-08T01:47:18.756Z,18.40
2023-05-08T01:49:51.479Z,19.58
2023-05-08T01:52:24.214Z,19.65
2023-05-08T01:55:00.051Z,19.65
2023-05-08T01:57:30.655Z,23.35
2023-05-08T02:00:01.969Z,18.42
2023-05-08T02:02:33.336Z,19.02
2023-05-08T02:05:05.896Z,18.48
2023-05-08T02:07:38.443Z,19.90
2023-05-08T02:10:09.252Z,20.45
2023-05-08T02:12:40.519Z,19.98
2023-05-08T02:15:10.768Z,20.77
2023-05-08T02:17:41.887Z,22.63
2023-05-08T02:20:15.160Z,24.20
2023-05-08T02:22:46.189Z,25.50
2023-05-08T02:25:16.273Z,26.38
2023-05-08T02:27:47.419Z,26.40
2023-05-08T02:30:16.459Z,25.92
2023-05-08T02:32:45.289Z,31.23
2023-05-08T02:35:18.575Z,32.33
2023-05-08T02:37:48.938Z,33.30
2023-05-08T02:40:19.140Z,35.65
2023-05-08T02:42:47.749Z,33.85
2023-05-08T02:45:15.794Z,35.97
2023-05-08T02:47:49.153Z,35.60
2023-05-08T02:50:23.112Z,36.85
2023-05-08T02:52:54.118Z,30.17
2023-05-08T02:55:34.172Z,41.10
2023-05-08T02:58:12.481Z,47.47
2023-05-08T03:00:46.408Z,54.38
2023-05-08T03:03:21.290Z,70.65
2023-05-08T03:05:53.609Z,72.50
2023-05-08T03:08:27.575Z,85.30
2023-05-08T03:10:58.411Z,92.50
2023-05-08T03:13:29.187Z,83.75
2023-05-08T03:16:00.013Z,88.63
2023-05-08T03:18:33.906Z,89.35
2023-05-08T03:21:04.603Z,97.40
2023-05-08T03:23:35.635Z,101.22
2023-05-08T03:26:05.807Z,106.28
2023-05-08T03:28:34.030Z,117.78
2023-05-08T03:31:03.275Z,117.25
2023-05-08T03:33:33.067Z,116.68
2023-05-08T03:36:01.000Z,118.57
2023-05-08T03:38:30.924Z,120.82
2023-05-08T03:41:00.709Z,123.75
2023-05-08T03:43:30.889Z,119.07
2023-05-08T03:45:59.728Z,127.78
2023-05-08T03:48:28.542Z,123.18
2023-05-08T03:50:57.698Z,120.53
2023-05-08T03:53:25.867Z,120.07
2023-05-08T03:55:55.047Z,124.05
2023-05-08T03:58:29.972Z,129.57
2023-05-08T04:01:05.852Z,135.82
2023-05-08T04:03:53.972Z,133.05
2023-05-08T04:06:35.736Z,128.50
2023-05-08T04:09:18.774Z,117.30
2023-05-08T04:12:03.283Z,130.07
2023-05-08T04:14:36.441Z,127.05
2023-05-08T04:17:07.845Z,126.80
2023-05-08T04:19:40.863Z,128.80
2023-05-08T04:22:09.583Z,121.88
2023-05-08T04:24:43.753Z,130.30
2023-05-08T04:27:14.023Z,122.25
2023-05-08T04:29:41.946Z,118.32
2023-05-08T04:32:12.094Z,119.03
2023-05-08T04:34:39.957Z,124.15
2023-05-08T04:37:08.438Z,124.15
2023-05-08T04:39:36.827Z,121.88
2023-05-08T04:42:05.000Z,126.00
2023-05-08T04:44:34.147Z,125.80
2023-05-08T04:47:02.441Z,127.72
2023-05-08T04:49:30.209Z,127.20
2023-05-08T04:51:58.035Z,125.72
2023-05-08T04:54:26.335Z,122.22
2023-05-08T04:56:54.145Z,132.00
2023-05-08T04:59:21.917Z,129.52
2023-05-08T05:01:51.698Z,126.97
2023-05-08T05:04:19.482Z,131.65
2023-05-08T05:06:47.240Z,131.70
2023-05-08T05:09:15.531Z,143.25
2023-05-08T05:11:43.398Z,128.93
2023-05-08T05:14:11.187Z,129.35
2023-05-08T05:16:39.709Z,123.85
2023-05-08T05:19:08.904Z,123.05
2023-05-08T05:21:37.919Z,125.18
2023-05-08T05:24:06.558Z,130.80
2023-05-08T05:26:36.366Z,128.93
2023-05-08T05:29:04.674Z,122.20
2023-05-08T05:31:33.134Z,131.45
2023-05-08T05:34:01.012Z,119.43
2023-05-08T05:36:30.767Z,123.10
2023-05-08T05:38:58.773Z,122.13
2023-05-08T05:41:26.646Z,127.35
2023-05-08T05:43:54.427Z,129.35
2023-05-08T05:46:26.712Z,136.30
2023-05-08T05:48:54.607Z,137.02
2023-05-08T05:51:22.389Z,132.27
2023-05-08T05:53:52.040Z,129.85
2023-05-08T05:58:47.404Z,114.53
2023-05-08T06:01:15.850Z,132.30
2023-05-08T06:03:44.011Z,117.40
2023-05-08T06:06:12.484Z,130.93
2023-05-08T06:08:40.913Z,128.55
2023-05-08T06:11:10.041Z,128.77
2023-05-08T06:13:40.086Z,132.80
2023-05-08T06:16:09.392Z,122.07
2023-05-08T06:18:37.152Z,124.38
2023-05-08T06:21:05.272Z,128.10
2023-05-08T06:23:33.678Z,127.05
2023-05-08T06:26:01.465Z,124.53
2023-05-08T06:28:30.684Z,113.30
2023-05-08T06:30:59.034Z,117.22
2023-05-08T06:33:27.171Z,111.50
2023-05-08T06:35:55.096Z,103.68
2023-05-08T06:38:23.486Z,107.45
2023-05-08T06:40:51.390Z,103.38
2023-05-08T06:43:19.200Z,110.28
2023-05-08T06:45:49.017Z,104.68
2023-05-08T06:48:17.047Z,100.13
2023-05-08T06:50:45.224Z,109.38
2023-05-08T06:53:13.714Z,105.38
2023-05-08T06:55:44.150Z,106.70
2023-05-08T06:58:12.203Z,108.38
2023-05-08T07:00:41.035Z,108.40
2023-05-08T07:03:10.369Z,105.70
2023-05-08T07:05:38.189Z,115.72
2023-05-08T07:08:06.514Z,105.40
2023-05-08T07:10:34.269Z,102.20
2023-05-08T07:13:02.089Z,101.28
2023-05-08T07:15:33.059Z,104.00
2023-05-08T07:18:00.889Z,103.95
2023-05-08T07:20:30.387Z,99.18
2023-05-08T07:22:58.711Z,91.57
2023-05-08T07:25:26.455Z,96.13
2023-05-08T07:27:54.269Z,88.93
2023-05-08T07:30:22.695Z,85.18
2023-05-08T07:32:50.611Z,79.88
2023-05-08T07:35:19.629Z,91.75
2023-05-08T07:37:49.145Z,86.25
2023-05-08T07:42:45.738Z,82.18
2023-05-08T07:45:15.689Z,88.05
2023-05-08T07:47:53.634Z,83.10
2023-05-08T07:50:24.808Z,85.00
2023-05-08T07:52:54.137Z,83.53
2023-05-08T07:55:22.543Z,81.50
2023-05-08T07:57:50.946Z,84.28
2023-05-08T08:00:19.186Z,77.95
2023-05-08T08:02:47.204Z,81.97
2023-05-08T08:05:15.879Z,81.05
2023-05-08T08:07:44.077Z,82.20
2023-05-08T08:10:13.496Z,76.65
2023-05-08T08:12:41.956Z,80.93
2023-05-08T08:15:10.688Z,77.15
2023-05-08T08:17:38.732Z,71.78
2023-05-08T08:20:08.316Z,71.03
2023-05-08T08:25:04.536Z,70.78
2023-05-08T08:27:34.522Z,70.57
2023-05-08T08:30:15.846Z,71.00
2023-05-08T08:32:45.949Z,76.55
2023-05-08T08:35:14.564Z,72.87
2023-05-08T08:37:43.021Z,69.40
2023-05-08T08:40:11.810Z,68.57
2023-05-08T08:42:40.990Z,71.90
2023-05-08T08:45:10.196Z,63.60
2023-05-08T08:47:39.864Z,64.68
2023-05-08T08:50:11.990Z,61.38
2023-05-08T08:52:44.910Z,67.45
2023-05-08T08:55:16.450Z,66.22
2023-05-08T08:57:53.569Z,70.97
2023-05-08T09:00:23.324Z,69.68
2023-05-08T09:02:51.752Z,74.60
2023-05-08T09:05:20.377Z,77.22
2023-05-08T09:07:48.751Z,76.40
2023-05-08T09:10:16.733Z,81.00
2023-05-08T09:12:46.212Z,80.53
2023-05-08T09:17:42.376Z,75.05
2023-05-08T09:20:12.549Z,81.22
2023-05-08T09:22:41.902Z,69.97
2023-05-08T09:25:10.681Z,68.70
2023-05-08T09:27:38.632Z,68.45
2023-05-08T09:30:09.291Z,72.93
2023-05-08T09:32:39.420Z,70.88
2023-05-08T09:35:09.409Z,65.43
2023-05-08T09:37:40.573Z,63.55
2023-05-08T09:40:15.976Z,60.17
2023-05-08T09:42:44.543Z,58.67
2023-05-08T09:45:28.914Z,51.75
2023-05-08T09:47:56.846Z,54.38
2023-05-08T09:50:25.336Z,54.10
2023-05-08T09:52:53.244Z,51.55
2023-05-08T09:55:21.755Z,52.78
2023-05-08T09:57:57.876Z,53.35
2023-05-08T10:00:29.035Z,51.10
2023-05-08T10:02:59.509Z,53.22
2023-05-08T10:05:30.400Z,52.40
2023-05-08T10:07:58.462Z,50.20
2023-05-08T10:10:27.815Z,56.25
2023-05-08T10:12:58.021Z,53.38
2023-05-08T10:15:30.881Z,53.78
2023-05-08T10:18:04.759Z,50.92
2023-05-08T10:20:34.192Z,52.80
2023-05-08T10:23:03.958Z,50.58
2023-05-08T10:25:34.469Z,51.80
2023-05-08T10:28:11.106Z,46.80
2023-05-08T10:30:44.813Z,46.60
2023-05-08T10:33:17.982Z,45.58
2023-05-08T10:35:46.915Z,46.13
2023-05-08T10:38:17.575Z,44.40
2023-05-08T10:40:46.120Z,41.75
2023-05-08T10:43:14.335Z,44.90
2023-05-08T10:45:44.293Z,44.92
2023-05-08T10:48:25.379Z,41.15
2023-05-08T10:51:01.969Z,38.33
2023-05-08T10:53:36.544Z,36.08
2023-05-08T10:56:04.639Z,35.92
2023-05-08T10:58:33.504Z,31.40
2023-05-08T11:01:16.979Z,38.53
2023-05-08T11:03:46.830Z,33.47
2023-05-08T11:06:15.761Z,36.22
2023-05-08T11:08:50.022Z,32.72
2023-05-08T11:11:25.235Z,32.75
2023-05-08T11:13:57.115Z,31.45
2023-05-08T11:17:03.728Z,33.10
2023-05-08T11:19:33.444Z,26.33
2023-05-08T11:22:27.117Z,28.00
2023-05-08T11:25:03.765Z,27.40
2023-05-08T11:27:37.308Z,24.77
2023-05-08T11:30:25.512Z,26.65
2023-05-08T11:33:18.468Z,23.52
2023-05-08T11:35:58.326Z,26.63
2023-05-08T11:38:28.797Z,27.40
2023-05-08T11:40:59.436Z,23.67
2023-05-08T11:44:09.474Z,31.08
2023-05-08T11:46:42.989Z,32.47
2023-05-08T11:49:16.509Z,35.20
2023-05-08T11:51:47.860Z,34.17
2023-05-08T11:54:17.397Z,35.58
2023-05-08T11:59:16.855Z,36.60
2023-05-08T12:01:53.566Z,35.80
2023-05-08T12:04:24.997Z,38.53
2023-05-08T12:06:58.767Z,38.97
2023-05-08T12:09:27.426Z,37.28
2023-05-08T12:11:58.956Z,37.53
2023-05-08T12:14:26.899Z,34.28
2023-05-08T12:16:55.232Z,32.00
2023-05-08T12:19:23.037Z,36.25
2023-05-08T12:21:51.400Z,34.13
2023-05-08T12:24:23.766Z,40.63
2023-05-08T12:26:56.647Z,33.20
2023-05-08T12:29:25.173Z,39.67
2023-05-08T12:31:53.743Z,40.55
2023-05-08T12:34:23.911Z,41.93
2023-05-08T12:37:03.350Z,45.80
2023-05-08T12:42:04.200Z,43.55
2023-05-08T12:44:32.284Z,44.03
2023-05-08T12:47:00.156Z,44.67
2023-05-08T12:49:29.579Z,42.53
2023-05-08T12:52:15.200Z,43.95
2023-05-08T12:54:49.783Z,51.97
2023-05-08T12:57:19.561Z,51.85
2023-05-08T12:59:47.975Z,50.40
2023-05-08T13:02:18.987Z,51.33
2023-05-08T13:04:47.339Z,48.17
2023-05-08T13:07:15.549Z,46.92
2023-05-08T13:09:59.766Z,44.78
2023-05-08T13:12:27.619Z,47.17
2023-05-08T13:14:55.438Z,44.95
2023-05-08T13:17:23.839Z,41.80
2023-05-08T13:19:51.432Z,41.80
2023-05-08T13:22:22.907Z,38.42
2023-05-08T13:24:51.232Z,35.58
2023-05-08T13:27:20.434Z,39.53
2023-05-08T13:29:48.218Z,38.25
2023-05-08T13:32:16.588Z,42.97
2023-05-08T13:34:50.720Z,42.03
2023-05-08T13:37:20.000Z,42.28
2023-05-08T13:39:47.823Z,44.17
2023-05-08T13:42:15.585Z,42.95
2023-05-08T13:44:45.154Z,46.25
2023-05-08T13:47:13.024Z,46.45
2023-05-08T13:49:40.812Z,45.33
2023-05-08T13:52:08.627Z,49.92
2023-05-08T13:54:37.708Z,48.13
2023-05-08T13:57:05.977Z,46.70
2023-05-08T13:59:34.161Z,43.15
2023-05-08T14:02:03.662Z,43.13
2023-05-08T14:06:59.298Z,42.72
2023-05-08T14:09:27.143Z,39.72
2023-05-08T14:11:55.063Z,39.65
2023-05-08T14:14:23.061Z,37.78
2023-05-08T14:16:51.272Z,37.25
2023-05-08T14:19:20.416Z,32.63
2023-05-08T14:21:48.607Z,28.52
2023-05-08T14:24:16.495Z,27.88
2023-05-08T14:26:45.015Z,29.48
2023-05-08T14:29:13.366Z,27.47
2023-05-08T14:31:41.412Z,28.85
2023-05-08T14:34:09.351Z,26.52
2023-05-08T14:36:38.876Z,26.08
2023-05-08T14:41:34.472Z,23.00
2023-05-08T14:44:02.884Z,27.58
2023-05-08T14:46:31.266Z,28.35
2023-05-08T14:48:59.111Z,29.98
2023-05-08T14:51:27.023Z,31.65
2023-05-08T14:53:56.560Z,29.05
2023-05-08T14:56:24.909Z,30.55
2023-05-08T14:58:55.688Z,29.98
2023-05-08T15:01:23.364Z,31.88
2023-05-08T15:03:53.247Z,29.83
2023-05-08T15:06:22.871Z,24.50
2023-05-08T15:08:51.791Z,25.00
2023-05-08T15:13:56.077Z,23.35
2023-05-08T15:16:24.107Z,24.70
2023-05-08T15:18:52.054Z,24.98
2023-05-08T15:21:21.573Z,23.52
2023-05-08T15:26:17.651Z,23.70
2023-05-08T15:28:46.770Z,23.27
2023-05-08T15:31:15.422Z,22.45
2023-05-08T15:33:44.930Z,20.90
2023-05-08T15:36:13.709Z,20.02
2023-05-08T15:38:42.783Z,20.40
2023-05-08T15:41:14.758Z,21.55
2023-05-08T15:43:45.643Z,21.77
2023-05-08T15:46:14.865Z,17.70
2023-05-08T15:48:42.740Z,16.65
2023-05-08T15:51:11.020Z,14.07
2023-05-08T15:53:38.862Z,15.27
2023-05-08T15:56:06.954Z,16.08
2023-05-08T15:58:36.805Z,14.27
2023-05-08T16:01:05.387Z,14.38
2023-05-08T16:03:34.747Z,12.97
2023-05-08T16:08:30.815Z,13.32
2023-05-08T16:10:58.597Z,14.48
2023-05-08T16:13:27.117Z,13.32
2023-05-08T16:15:55.253Z,14.67
2023-05-08T16:18:23.053Z,11.80
2023-05-08T16:20:52.796Z,12.82
2023-05-08T16:23:20.569Z,11.55
2023-05-08T16:25:48.373Z,13.63
2023-05-08T16:28:16.207Z,13.18
2023-05-08T16:30:44.026Z,13.10
2023-05-08T16:33:12.538Z,11.45
2023-05-08T16:35:41.426Z,12.77
2023-05-08T16:38:10.952Z,13.23
2023-05-08T16:43:08.822Z,26.08
2023-05-08T16:45:36.753Z,12.63
2023-05-08T16:48:05.180Z,16.20
2023-05-08T16:50:33.636Z,14.48
2023-05-08T16:53:02.146Z,12.98
2023-05-08T16:55:31.304Z,14.27
2023-05-08T16:57:59.642Z,12.75
2023-05-08T17:00:27.583Z,13.32
2023-05-08T17:02:55.423Z,14.10
2023-05-08T17:05:24.177Z,13.93
2023-05-08T17:07:52.035Z,13.75
2023-05-08T17:10:19.820Z,14.50
2023-05-08T17:12:50.882Z,15.00
2023-05-08T17:15:19.560Z,14.02
2023-05-08T17:17:47.686Z,17.20
2023-05-08T17:20:16.625Z,13.52
2023-05-08T17:22:44.466Z,14.38
2023-05-08T17:25:12.257Z,13.57
2023-05-08T17:27:40.472Z,12.38
2023-05-08T17:30:12.190Z,13.02
2023-05-08T17:32:40.384Z,12.88
2023-05-08T17:35:10.166Z,13.38
2023-05-08T17:37:38.043Z,12.77
2023-05-08T17:40:06.806Z,13.65
2023-05-08T17:42:35.958Z,11.52
2023-05-08T17:45:04.953Z,14.35
2023-05-08T17:47:34.147Z,13.48
2023-05-08T17:50:02.552Z,13.48
2023-05-08T17:52:30.352Z,10.60
2023-05-08T17:54:58.334Z,13.20
2023-05-08T17:57:26.482Z,10.98
2023-05-08T17:59:54.280Z,11.82
2023-05-08T18:02:22.075Z,10.77
2023-05-08T18:04:51.747Z,11.18
2023-05-08T18:07:19.611Z,11.88
2023-05-08T18:09:47.374Z,13.52
2023-05-08T18:12:15.573Z,12.40
2023-05-08T18:14:44.422Z,11.98
2023-05-08T18:17:15.399Z,11.82
2023-05-08T18:19:43.736Z,11.07
2023-05-08T18:22:12.912Z,12.32
2023-05-08T18:24:40.724Z,10.85
2023-05-08T18:27:09.208Z,11.48
2023-05-08T18:29:36.974Z,10.32
2023-05-08T18:32:05.167Z,10.98
2023-05-08T18:34:32.983Z,11.27
2023-05-08T18:37:00.762Z,12.50
2023-05-08T18:39:29.929Z,14.25
2023-05-08T18:41:58.234Z,15.38
2023-05-08T18:44:26.045Z,15.57
2023-05-08T18:46:53.797Z,16.05
2023-05-08T18:49:22.193Z,17.08
2023-05-08T18:51:49.982Z,17.27
2023-05-08T18:54:17.757Z,16.58
2023-05-08T18:56:47.205Z,18.00
2023-05-08T18:59:14.977Z,18.80
2023-05-08T19:01:42.751Z,18.15
2023-05-08T19:04:10.676Z,18.65
2023-05-08T19:06:38.585Z,16.80
2023-05-08T19:09:06.412Z,16.25
2023-05-08T19:11:34.543Z,15.07
2023-05-08T19:14:04.016Z,13.52
2023-05-08T19:16:31.956Z,13.82
2023-05-08T19:19:00.034Z,16.20
2023-05-08T19:21:27.843Z,15.98
2023-05-08T19:23:55.635Z,15.27
2023-05-08T19:26:23.713Z,14.73
2023-05-08T19:28:51.469Z,16.00
2023-05-08T19:31:20.730Z,15.07
2023-05-08T19:33:49.900Z,14.25
2023-05-08T19:36:18.348Z,14.10
2023-05-08T19:38:46.129Z,14.32
2023-05-08T19:41:14.118Z,14.93
2023-05-08T19:43:41.888Z,14.73
2023-05-08T19:46:09.692Z,13.80
2023-05-08T19:48:40.052Z,13.57
2023-05-08T19:51:08.068Z,16.70
2023-05-08T19:53:35.923Z,12.73
2023-05-08T19:56:03.978Z,17.55
2023-05-08T19:58:31.773Z,19.17
2023-05-08T20:00:59.761Z,16.02
2023-05-08T20:03:28.106Z,17.73
2023-05-08T20:05:57.376Z,18.92
2023-05-08T20:08:25.285Z,20.33
2023-05-08T20:10:53.095Z,20.23
2023-05-08T20:13:21.087Z,19.75
2023-05-08T20:15:49.281Z,20.50
2023-05-08T20:18:17.127Z,17.98
2023-05-08T20:20:46.120Z,19.55
2023-05-08T20:23:15.256Z,20.02
2023-05-08T20:25:46.167Z,21.00
2023-05-08T20:28:13.928Z,21.23
2023-05-08T20:30:41.746Z,19.85
2023-05-08T20:33:09.641Z,22.30
2023-05-08T20:35:37.447Z,22.10
2023-05-08T20:38:05.451Z,20.90
2023-05-08T20:40:35.392Z,23.50
2023-05-08T20:43:03.351Z,21.13
2023-05-08T20:45:31.283Z,21.83
2023-05-08T20:47:59.827Z,22.92
2023-05-08T20:50:27.724Z,17.92
2023-05-08T20:52:55.896Z,20.55
2023-05-08T20:55:24.354Z,21.42
2023-05-08T20:57:53.598Z,21.92
2023-05-08T21:00:22.472Z,19.77
2023-05-08T21:02:50.481Z,22.77
2023-05-08T21:05:18.974Z,19.83
2023-05-08T21:07:46.752Z,19.33
2023-05-08T21:10:16.717Z,23.92
2023-05-08T21:12:45.531Z,21.05
2023-05-08T21:15:15.128Z,19.00
2023-05-08T21:17:43.408Z,18.95
2023-05-08T21:20:12.543Z,19.15
2023-05-08T21:22:40.639Z,17.48
2023-05-08T21:25:12.582Z,19.80
2023-05-08T21:27:42.539Z,21.42
2023-05-08T21:30:15.642Z,19.42
2023-05-08T21:32:45.840Z,20.48
2023-05-08T21:35:14.411Z,18.48
2023-05-08T21:37:42.645Z,19.52
2023-05-08T21:40:10.842Z,16.77
2023-05-08T21:42:40.292Z,16.08
2023-05-08T21:45:08.873Z,14.32
2023-05-08T21:47:36.657Z,14.82
2023-05-08T21:50:07.166Z,14.55
2023-05-08T21:52:35.845Z,16.83
2023-05-08T21:55:08.358Z,17.23
2023-05-08T21:57:36.630Z,14.40
2023-05-08T22:00:05.458Z,12.32
2023-05-08T22:02:33.340Z,12.98
2023-05-08T22:05:01.550Z,14.70
2023-05-08T22:07:30.821Z,13.40
2023-05-08T22:09:58.602Z,15.95
2023-05-08T22:12:26.715Z,13.43
2023-05-08T22:14:54.484Z,12.55
2023-05-08T22:17:22.204Z,15.43
2023-05-08T22:19:49.962Z,13.10
2023-05-08T22:22:17.693Z,12.52
2023-05-08T22:24:46.813Z,11.60
2023-05-08T22:27:14.782Z,12.23
2023-05-08T22:29:42.485Z,9.50
2023-05-08T22:32:10.367Z,9.18
2023-05-08T22:34:38.281Z,10.18
2023-05-08T22:37:06.222Z,10.23
2023-05-08T22:39:34.021Z,9.30
2023-05-08T22:42:03.664Z,11.52
2023-05-08T22:46:59.509Z,9.15
2023-05-08T22:49:27.649Z,8.80
2023-05-08T22:51:55.841Z,9.05
2023-05-08T22:54:23.686Z,8.93
2023-05-08T22:56:51.736Z,9.40
2023-05-08T22:59:20.877Z,8.68
2023-05-08T23:01:48.625Z,10.25
2023-05-08T23:04:16.671Z,8.50
2023-05-08T23:06:44.423Z,7.63
2023-05-08T23:09:12.436Z,8.88
2023-05-08T23:11:40.823Z,10.25
2023-05-08T23:14:08.589Z,8.82
2023-05-08T23:16:37.907Z,9.15
2023-05-08T23:19:07.591Z,8.88
2023-05-08T23:21:35.375Z,6.90
2023-05-08T23:24:03.173Z,10.48
2023-05-08T23:26:31.293Z,9.57
2023-05-08T23:28:59.106Z,7.93
2023-05-08T23:31:27.046Z,8.70
2023-05-08T23:33:56.537Z,7.72
2023-05-08T23:36:24.617Z,8.60
2023-05-08T23:38:52.593Z,8.75
2023-05-08T23:41:20.589Z,9.57
2023-05-08T23:43:48.659Z,11.23
2023-05-08T23:46:16.740Z,10.98
2023-05-08T23:48:45.155Z,10.88
2023-05-08T23:51:14.360Z,8.48
2023-05-08T23:53:42.256Z,9.95
2023-05-08T23:56:10.980Z,8.68
2023-05-08T23:58:38.902Z,9.27
